sensor_id;sensor_type;location;lat;lon;timestamp;P1;durP1;ratioP1;P2;durP2;ratioP2
22922;SDS011;11627;51.322;22.816;2022-10-28T00:01:06;34.63;;;21.20;;
22922;SDS011;11627;51.322;22.816;2022-10-28T00:03:32;37.50;;;21.85;;
22922;SDS011;11627;51.322;22.816;2022-10-28T00:06:02;38.92;;;22.25;;
22922;SDS011;11627;51.322;22.816;2022-10-28T00:08:31;40.78;;;22.33;;
22922;SDS011;11627;51.322;22.816;2022-10-28T00:11:03;44.85;;;22.67;;
22922;SDS011;11627;51.322;22.816;2022-10-28T00:13:30;40.95;;;22.00;;
22922;SDS011;11627;51.322;22.816;2022-10-28T00:16:01;41.13;;;22.52;;
22922;SDS011;11627;51.322;22.816;2022-10-28T00:18:34;41.60;;;22.80;;
22922;SDS011;11627;51.322;22.816;2022-10-28T00:21:02;36.75;;;21.35;;
22922;SDS011;11627;51.322;22.816;2022-10-28T00:23:31;40.83;;;22.40;;
22922;SDS011;11627;51.322;22.816;2022-10-28T00:26:05;37.45;;;22.10;;
22922;SDS011;11627;51.322;22.816;2022-10-28T00:28:45;40.10;;;21.92;;
22922;SDS011;11627;51.322;22.816;2022-10-28T00:31:12;44.55;;;23.02;;
22922;SDS011;11627;51.322;22.816;2022-10-28T00:33:40;35.58;;;21.13;;
22922;SDS011;11627;51.322;22.816;2022-10-28T00:36:11;40.67;;;22.02;;
22922;SDS011;11627;51.322;22.816;2022-10-28T00:38:38;39.65;;;21.85;;
22922;SDS011;11627;51.322;22.816;2022-10-28T00:41:04;40.35;;;21.50;;
22922;SDS011;11627;51.322;22.816;2022-10-28T00:43:34;35.97;;;21.35;;
22922;SDS011;11627;51.322;22.816;2022-10-28T00:46:05;37.00;;;21.80;;
22922;SDS011;11627;51.322;22.816;2022-10-28T00:48:41;37.80;;;22.38;;
22922;SDS011;11627;51.322;22.816;2022-10-28T00:51:10;41.80;;;21.50;;
22922;SDS011;11627;51.322;22.816;2022-10-28T00:53:38;41.22;;;21.85;;
22922;SDS011;11627;51.322;22.816;2022-10-28T00:56:07;43.00;;;21.92;;
22922;SDS011;11627;51.322;22.816;2022-10-28T00:58:35;37.72;;;21.25;;
22922;SDS011;11627;51.322;22.816;2022-10-28T01:01:02;38.65;;;21.45;;
22922;SDS011;11627;51.322;22.816;2022-10-28T01:03:27;33.75;;;20.52;;
22922;SDS011;11627;51.322;22.816;2022-10-28T01:05:54;36.20;;;20.55;;
22922;SDS011;11627;51.322;22.816;2022-10-28T01:08:22;38.20;;;21.25;;
22922;SDS011;11627;51.322;22.816;2022-10-28T01:13:50;42.33;;;21.15;;
22922;SDS011;11627;51.322;22.816;2022-10-28T01:16:46;41.25;;;22.25;;
22922;SDS011;11627;51.322;22.816;2022-10-28T01:30:55;41.75;;;20.67;;
22922;SDS011;11627;51.322;22.816;2022-10-28T01:39:22;32.90;;;19.00;;
22922;SDS011;11627;51.322;22.816;2022-10-28T01:45:02;32.08;;;19.83;;
22922;SDS011;11627;51.322;22.816;2022-10-28T01:53:25;36.67;;;21.17;;
22922;SDS011;11627;51.322;22.816;2022-10-28T01:55:54;36.53;;;21.30;;
22922;SDS011;11627;51.322;22.816;2022-10-28T01:58:26;34.80;;;21.05;;
22922;SDS011;11627;51.322;22.816;2022-10-28T02:00:54;36.75;;;20.98;;
22922;SDS011;11627;51.322;22.816;2022-10-28T02:03:23;40.35;;;21.70;;
22922;SDS011;11627;51.322;22.816;2022-10-28T02:05:53;39.05;;;22.42;;
22922;SDS011;11627;51.322;22.816;2022-10-28T02:08:32;36.13;;;21.35;;
22922;SDS011;11627;51.322;22.816;2022-10-28T02:20:06;42.67;;;22.98;;
22922;SDS011;11627;51.322;22.816;2022-10-28T02:28:48;41.95;;;22.85;;
22922;SDS011;11627;51.322;22.816;2022-10-28T02:31:44;38.08;;;22.67;;
22922;SDS011;11627;51.322;22.816;2022-10-28T02:34:17;46.33;;;23.88;;
22922;SDS011;11627;51.322;22.816;2022-10-28T02:36:49;38.60;;;23.58;;
22922;SDS011;11627;51.322;22.816;2022-10-28T02:39:32;44.42;;;24.40;;
22922;SDS011;11627;51.322;22.816;2022-10-28T02:42:05;41.90;;;23.83;;
22922;SDS011;11627;51.322;22.816;2022-10-28T02:44:37;41.53;;;24.15;;
22922;SDS011;11627;51.322;22.816;2022-10-28T02:47:17;50.03;;;24.55;;
22922;SDS011;11627;51.322;22.816;2022-10-28T02:49:46;41.30;;;24.65;;
22922;SDS011;11627;51.322;22.816;2022-10-28T02:52:17;42.67;;;24.45;;
22922;SDS011;11627;51.322;22.816;2022-10-28T02:54:46;42.15;;;24.23;;
22922;SDS011;11627;51.322;22.816;2022-10-28T02:57:29;47.28;;;25.08;;
22922;SDS011;11627;51.322;22.816;2022-10-28T03:00:00;39.38;;;23.98;;
22922;SDS011;11627;51.322;22.816;2022-10-28T03:02:29;40.65;;;23.38;;
22922;SDS011;11627;51.322;22.816;2022-10-28T03:04:55;37.22;;;22.33;;
22922;SDS011;11627;51.322;22.816;2022-10-28T03:07:21;39.85;;;23.02;;
22922;SDS011;11627;51.322;22.816;2022-10-28T03:09:46;44.38;;;23.30;;
22922;SDS011;11627;51.322;22.816;2022-10-28T03:12:12;42.33;;;23.60;;
22922;SDS011;11627;51.322;22.816;2022-10-28T03:14:38;40.17;;;22.90;;
22922;SDS011;11627;51.322;22.816;2022-10-28T03:17:05;41.10;;;23.65;;
22922;SDS011;11627;51.322;22.816;2022-10-28T03:19:31;40.05;;;23.25;;
22922;SDS011;11627;51.322;22.816;2022-10-28T03:21:58;38.17;;;24.38;;
22922;SDS011;11627;51.322;22.816;2022-10-28T03:24:23;41.45;;;24.00;;
22922;SDS011;11627;51.322;22.816;2022-10-28T03:26:50;43.72;;;25.00;;
22922;SDS011;11627;51.322;22.816;2022-10-28T03:29:17;43.60;;;24.80;;
22922;SDS011;11627;51.322;22.816;2022-10-28T03:31:42;39.28;;;24.42;;
22922;SDS011;11627;51.322;22.816;2022-10-28T03:34:09;40.25;;;23.63;;
22922;SDS011;11627;51.322;22.816;2022-10-28T03:36:35;43.15;;;23.67;;
22922;SDS011;11627;51.322;22.816;2022-10-28T03:39:00;39.05;;;23.77;;
22922;SDS011;11627;51.322;22.816;2022-10-28T03:41:26;37.60;;;22.65;;
22922;SDS011;11627;51.322;22.816;2022-10-28T03:43:53;37.90;;;23.63;;
22922;SDS011;11627;51.322;22.816;2022-10-28T03:46:18;38.65;;;23.45;;
22922;SDS011;11627;51.322;22.816;2022-10-28T03:48:45;38.28;;;23.13;;
22922;SDS011;11627;51.322;22.816;2022-10-28T03:51:11;44.00;;;24.33;;
22922;SDS011;11627;51.322;22.816;2022-10-28T03:53:36;43.08;;;23.27;;
22922;SDS011;11627;51.322;22.816;2022-10-28T03:56:03;38.38;;;22.80;;
22922;SDS011;11627;51.322;22.816;2022-10-28T03:58:30;40.08;;;23.48;;
22922;SDS011;11627;51.322;22.816;2022-10-28T04:00:55;43.38;;;23.52;;
22922;SDS011;11627;51.322;22.816;2022-10-28T04:03:21;40.17;;;22.73;;
22922;SDS011;11627;51.322;22.816;2022-10-28T04:05:48;39.15;;;23.90;;
22922;SDS011;11627;51.322;22.816;2022-10-28T04:08:14;39.08;;;23.40;;
22922;SDS011;11627;51.322;22.816;2022-10-28T04:10:42;38.88;;;23.00;;
22922;SDS011;11627;51.322;22.816;2022-10-28T04:13:09;38.03;;;23.20;;
22922;SDS011;11627;51.322;22.816;2022-10-28T04:15:34;40.55;;;23.73;;
22922;SDS011;11627;51.322;22.816;2022-10-28T04:18:01;40.88;;;24.42;;
22922;SDS011;11627;51.322;22.816;2022-10-28T04:20:29;39.10;;;24.10;;
22922;SDS011;11627;51.322;22.816;2022-10-28T04:22:55;39.92;;;25.55;;
22922;SDS011;11627;51.322;22.816;2022-10-28T04:25:21;48.17;;;28.30;;
22922;SDS011;11627;51.322;22.816;2022-10-28T04:27:48;47.00;;;27.73;;
22922;SDS011;11627;51.322;22.816;2022-10-28T04:30:13;47.50;;;28.08;;
22922;SDS011;11627;51.322;22.816;2022-10-28T04:32:39;49.78;;;28.25;;
22922;SDS011;11627;51.322;22.816;2022-10-28T04:35:06;60.58;;;31.27;;
22922;SDS011;11627;51.322;22.816;2022-10-28T04:37:34;66.20;;;33.70;;
22922;SDS011;11627;51.322;22.816;2022-10-28T04:40:00;59.75;;;33.38;;
22922;SDS011;11627;51.322;22.816;2022-10-28T04:42:27;52.60;;;30.30;;
22922;SDS011;11627;51.322;22.816;2022-10-28T04:44:56;46.55;;;29.15;;
22922;SDS011;11627;51.322;22.816;2022-10-28T04:47:21;53.40;;;30.90;;
22922;SDS011;11627;51.322;22.816;2022-10-28T04:49:47;52.45;;;31.05;;
22922;SDS011;11627;51.322;22.816;2022-10-28T04:52:13;55.63;;;32.13;;
22922;SDS011;11627;51.322;22.816;2022-10-28T04:54:38;54.15;;;32.03;;
22922;SDS011;11627;51.322;22.816;2022-10-28T04:57:04;55.35;;;32.20;;
22922;SDS011;11627;51.322;22.816;2022-10-28T04:59:32;54.05;;;31.77;;
22922;SDS011;11627;51.322;22.816;2022-10-28T05:01:58;53.75;;;31.27;;
22922;SDS011;11627;51.322;22.816;2022-10-28T05:04:23;54.45;;;33.08;;
22922;SDS011;11627;51.322;22.816;2022-10-28T05:06:50;54.80;;;32.53;;
22922;SDS011;11627;51.322;22.816;2022-10-28T05:09:18;55.47;;;32.90;;
22922;SDS011;11627;51.322;22.816;2022-10-28T05:11:43;52.20;;;29.92;;
22922;SDS011;11627;51.322;22.816;2022-10-28T05:14:09;49.20;;;30.63;;
22922;SDS011;11627;51.322;22.816;2022-10-28T05:16:34;59.05;;;32.47;;
22922;SDS011;11627;51.322;22.816;2022-10-28T05:19:01;60.05;;;32.97;;
22922;SDS011;11627;51.322;22.816;2022-10-28T05:21:27;51.25;;;30.55;;
22922;SDS011;11627;51.322;22.816;2022-10-28T05:23:52;51.25;;;31.63;;
22922;SDS011;11627;51.322;22.816;2022-10-28T05:26:19;46.45;;;29.23;;
22922;SDS011;11627;51.322;22.816;2022-10-28T05:28:48;47.65;;;29.33;;
22922;SDS011;11627;51.322;22.816;2022-10-28T05:31:14;44.70;;;28.00;;
22922;SDS011;11627;51.322;22.816;2022-10-28T05:33:41;46.03;;;29.10;;
22922;SDS011;11627;51.322;22.816;2022-10-28T05:36:07;45.17;;;28.63;;
22922;SDS011;11627;51.322;22.816;2022-10-28T05:38:32;44.78;;;28.67;;
22922;SDS011;11627;51.322;22.816;2022-10-28T05:40:59;49.17;;;30.70;;
22922;SDS011;11627;51.322;22.816;2022-10-28T05:43:25;43.97;;;27.95;;
22922;SDS011;11627;51.322;22.816;2022-10-28T05:45:51;48.33;;;29.48;;
22922;SDS011;11627;51.322;22.816;2022-10-28T05:48:20;49.90;;;28.15;;
22922;SDS011;11627;51.322;22.816;2022-10-28T05:50:48;43.80;;;27.75;;
22922;SDS011;11627;51.322;22.816;2022-10-28T05:53:13;44.47;;;27.10;;
22922;SDS011;11627;51.322;22.816;2022-10-28T05:55:40;46.33;;;27.90;;
22922;SDS011;11627;51.322;22.816;2022-10-28T05:58:06;48.00;;;28.60;;
22922;SDS011;11627;51.322;22.816;2022-10-28T06:00:31;46.67;;;27.42;;
22922;SDS011;11627;51.322;22.816;2022-10-28T06:03:03;51.30;;;30.75;;
22922;SDS011;11627;51.322;22.816;2022-10-28T06:05:36;49.35;;;29.13;;
22922;SDS011;11627;51.322;22.816;2022-10-28T06:08:03;50.03;;;29.58;;
22922;SDS011;11627;51.322;22.816;2022-10-28T06:10:29;54.75;;;31.25;;
22922;SDS011;11627;51.322;22.816;2022-10-28T06:12:55;53.33;;;30.63;;
22922;SDS011;11627;51.322;22.816;2022-10-28T06:15:22;57.60;;;31.02;;
22922;SDS011;11627;51.322;22.816;2022-10-28T06:17:48;60.10;;;32.28;;
22922;SDS011;11627;51.322;22.816;2022-10-28T06:20:14;57.92;;;31.35;;
22922;SDS011;11627;51.322;22.816;2022-10-28T06:22:50;61.00;;;32.88;;
22922;SDS011;11627;51.322;22.816;2022-10-28T06:25:19;55.80;;;30.75;;
22922;SDS011;11627;51.322;22.816;2022-10-28T06:27:56;55.10;;;31.63;;
22922;SDS011;11627;51.322;22.816;2022-10-28T06:30:25;66.25;;;35.17;;
22922;SDS011;11627;51.322;22.816;2022-10-28T06:32:51;62.80;;;34.80;;
22922;SDS011;11627;51.322;22.816;2022-10-28T06:35:17;62.53;;;35.78;;
22922;SDS011;11627;51.322;22.816;2022-10-28T06:37:43;60.08;;;32.97;;
22922;SDS011;11627;51.322;22.816;2022-10-28T06:40:08;56.80;;;32.10;;
22922;SDS011;11627;51.322;22.816;2022-10-28T06:42:34;57.47;;;32.28;;
22922;SDS011;11627;51.322;22.816;2022-10-28T06:45:00;58.88;;;33.92;;
22922;SDS011;11627;51.322;22.816;2022-10-28T06:47:25;58.97;;;33.03;;
22922;SDS011;11627;51.322;22.816;2022-10-28T06:49:52;63.67;;;35.08;;
22922;SDS011;11627;51.322;22.816;2022-10-28T06:52:17;60.97;;;34.78;;
22922;SDS011;11627;51.322;22.816;2022-10-28T06:54:44;58.47;;;33.67;;
22922;SDS011;11627;51.322;22.816;2022-10-28T06:57:11;60.55;;;33.95;;
22922;SDS011;11627;51.322;22.816;2022-10-28T06:59:38;60.83;;;35.10;;
22922;SDS011;11627;51.322;22.816;2022-10-28T07:02:04;71.68;;;35.45;;
22922;SDS011;11627;51.322;22.816;2022-10-28T07:04:32;58.45;;;34.35;;
22922;SDS011;11627;51.322;22.816;2022-10-28T07:06:57;65.10;;;36.00;;
22922;SDS011;11627;51.322;22.816;2022-10-28T07:09:23;62.50;;;36.75;;
22922;SDS011;11627;51.322;22.816;2022-10-28T07:11:50;60.25;;;32.67;;
22922;SDS011;11627;51.322;22.816;2022-10-28T07:14:15;63.35;;;36.33;;
22922;SDS011;11627;51.322;22.816;2022-10-28T07:16:41;64.95;;;36.55;;
22922;SDS011;11627;51.322;22.816;2022-10-28T07:19:07;72.13;;;37.80;;
22922;SDS011;11627;51.322;22.816;2022-10-28T07:21:33;75.35;;;37.72;;
22922;SDS011;11627;51.322;22.816;2022-10-28T07:24:00;68.97;;;34.83;;
22922;SDS011;11627;51.322;22.816;2022-10-28T07:26:27;68.63;;;35.47;;
22922;SDS011;11627;51.322;22.816;2022-10-28T07:28:54;74.45;;;36.78;;
22922;SDS011;11627;51.322;22.816;2022-10-28T07:31:20;78.22;;;38.60;;
22922;SDS011;11627;51.322;22.816;2022-10-28T07:33:52;74.20;;;35.88;;
22922;SDS011;11627;51.322;22.816;2022-10-28T07:36:19;64.25;;;34.28;;
22922;SDS011;11627;51.322;22.816;2022-10-28T07:38:47;70.15;;;35.20;;
22922;SDS011;11627;51.322;22.816;2022-10-28T07:41:13;66.97;;;34.22;;
22922;SDS011;11627;51.322;22.816;2022-10-28T07:43:39;68.50;;;33.60;;
22922;SDS011;11627;51.322;22.816;2022-10-28T07:46:05;67.35;;;32.60;;
22922;SDS011;11627;51.322;22.816;2022-10-28T07:48:31;65.30;;;32.03;;
22922;SDS011;11627;51.322;22.816;2022-10-28T07:50:59;65.88;;;31.08;;
22922;SDS011;11627;51.322;22.816;2022-10-28T07:53:25;63.22;;;32.95;;
22922;SDS011;11627;51.322;22.816;2022-10-28T07:55:58;66.40;;;33.03;;
22922;SDS011;11627;51.322;22.816;2022-10-28T07:58:25;64.13;;;32.25;;
22922;SDS011;11627;51.322;22.816;2022-10-28T08:00:51;60.45;;;31.13;;
22922;SDS011;11627;51.322;22.816;2022-10-28T08:03:17;65.55;;;33.53;;
22922;SDS011;11627;51.322;22.816;2022-10-28T08:05:42;65.85;;;34.58;;
22922;SDS011;11627;51.322;22.816;2022-10-28T08:08:09;65.43;;;35.35;;
22922;SDS011;11627;51.322;22.816;2022-10-28T08:10:40;71.97;;;35.10;;
22922;SDS011;11627;51.322;22.816;2022-10-28T08:13:06;66.30;;;34.80;;
22922;SDS011;11627;51.322;22.816;2022-10-28T08:15:31;71.63;;;36.83;;
22922;SDS011;11627;51.322;22.816;2022-10-28T08:17:57;69.30;;;33.20;;
22922;SDS011;11627;51.322;22.816;2022-10-28T08:20:23;67.50;;;34.88;;
22922;SDS011;11627;51.322;22.816;2022-10-28T08:22:49;65.40;;;35.13;;
22922;SDS011;11627;51.322;22.816;2022-10-28T08:25:15;70.45;;;35.78;;
22922;SDS011;11627;51.322;22.816;2022-10-28T08:27:40;74.75;;;38.30;;
22922;SDS011;11627;51.322;22.816;2022-10-28T08:30:06;75.68;;;39.13;;
22922;SDS011;11627;51.322;22.816;2022-10-28T08:32:33;92.28;;;45.80;;
22922;SDS011;11627;51.322;22.816;2022-10-28T08:34:59;98.00;;;48.33;;
22922;SDS011;11627;51.322;22.816;2022-10-28T08:37:24;98.43;;;49.60;;
22922;SDS011;11627;51.322;22.816;2022-10-28T08:39:50;100.82;;;51.75;;
22922;SDS011;11627;51.322;22.816;2022-10-28T08:42:27;88.60;;;47.30;;
22922;SDS011;11627;51.322;22.816;2022-10-28T08:45:03;92.25;;;46.75;;
22922;SDS011;11627;51.322;22.816;2022-10-28T08:50:48;66.22;;;38.65;;
22922;SDS011;11627;51.322;22.816;2022-10-28T08:53:22;65.82;;;37.55;;
22922;SDS011;11627;51.322;22.816;2022-10-28T08:55:55;67.50;;;37.78;;
22922;SDS011;11627;51.322;22.816;2022-10-28T08:58:32;59.92;;;34.60;;
22922;SDS011;11627;51.322;22.816;2022-10-28T09:01:02;59.58;;;33.63;;
22922;SDS011;11627;51.322;22.816;2022-10-28T09:03:37;58.55;;;31.48;;
22922;SDS011;11627;51.322;22.816;2022-10-28T09:06:07;51.10;;;29.33;;
22922;SDS011;11627;51.322;22.816;2022-10-28T09:08:35;42.15;;;26.05;;
22922;SDS011;11627;51.322;22.816;2022-10-28T09:11:28;48.05;;;27.55;;
22922;SDS011;11627;51.322;22.816;2022-10-28T09:17:17;41.10;;;24.17;;
22922;SDS011;11627;51.322;22.816;2022-10-28T09:23:21;39.28;;;23.50;;
22922;SDS011;11627;51.322;22.816;2022-10-28T09:25:45;40.88;;;24.80;;
22922;SDS011;11627;51.322;22.816;2022-10-28T09:31:15;45.08;;;26.30;;
22922;SDS011;11627;51.322;22.816;2022-10-28T09:36:24;40.55;;;22.42;;
22922;SDS011;11627;51.322;22.816;2022-10-28T09:38:55;34.60;;;21.55;;
22922;SDS011;11627;51.322;22.816;2022-10-28T09:41:37;33.10;;;21.40;;
22922;SDS011;11627;51.322;22.816;2022-10-28T09:44:13;33.13;;;19.88;;
22922;SDS011;11627;51.322;22.816;2022-10-28T09:46:47;33.92;;;20.52;;
22922;SDS011;11627;51.322;22.816;2022-10-28T09:49:23;31.15;;;20.23;;
22922;SDS011;11627;51.322;22.816;2022-10-28T09:51:58;27.35;;;17.42;;
22922;SDS011;11627;51.322;22.816;2022-10-28T09:54:41;25.52;;;16.50;;
22922;SDS011;11627;51.322;22.816;2022-10-28T09:57:12;27.30;;;16.77;;
22922;SDS011;11627;51.322;22.816;2022-10-28T09:59:37;23.73;;;15.38;;
22922;SDS011;11627;51.322;22.816;2022-10-28T10:02:05;27.38;;;15.20;;
22922;SDS011;11627;51.322;22.816;2022-10-28T10:04:57;22.17;;;13.48;;
22922;SDS011;11627;51.322;22.816;2022-10-28T10:07:40;23.05;;;14.32;;
22922;SDS011;11627;51.322;22.816;2022-10-28T10:10:15;18.48;;;11.75;;
22922;SDS011;11627;51.322;22.816;2022-10-28T10:12:54;17.55;;;11.23;;
22922;SDS011;11627;51.322;22.816;2022-10-28T10:15:29;17.77;;;10.43;;
22922;SDS011;11627;51.322;22.816;2022-10-28T10:18:01;16.95;;;11.00;;
22922;SDS011;11627;51.322;22.816;2022-10-28T10:23:36;24.90;;;12.90;;
22922;SDS011;11627;51.322;22.816;2022-10-28T10:28:30;18.63;;;11.48;;
22922;SDS011;11627;51.322;22.816;2022-10-28T10:30:58;18.30;;;12.02;;
22922;SDS011;11627;51.322;22.816;2022-10-28T10:33:28;21.58;;;12.00;;
22922;SDS011;11627;51.322;22.816;2022-10-28T10:35:56;23.13;;;10.95;;
22922;SDS011;11627;51.322;22.816;2022-10-28T10:38:25;19.02;;;11.80;;
22922;SDS011;11627;51.322;22.816;2022-10-28T10:40:52;17.77;;;11.20;;
22922;SDS011;11627;51.322;22.816;2022-10-28T10:48:24;16.75;;;10.90;;
22922;SDS011;11627;51.322;22.816;2022-10-28T10:50:50;17.27;;;10.18;;
22922;SDS011;11627;51.322;22.816;2022-10-28T10:55:47;15.25;;;10.00;;
22922;SDS011;11627;51.322;22.816;2022-10-28T10:58:25;13.82;;;9.38;;
22922;SDS011;11627;51.322;22.816;2022-10-28T11:00:55;17.27;;;9.20;;
22922;SDS011;11627;51.322;22.816;2022-10-28T11:04:14;14.85;;;9.82;;
22922;SDS011;11627;51.322;22.816;2022-10-28T11:06:25;12.05;;;8.48;;
22922;SDS011;11627;51.322;22.816;2022-10-28T11:08:55;14.10;;;8.25;;
22922;SDS011;11627;51.322;22.816;2022-10-28T11:11:35;15.05;;;9.25;;
22922;SDS011;11627;51.322;22.816;2022-10-28T11:19:26;15.73;;;9.48;;
22922;SDS011;11627;51.322;22.816;2022-10-28T11:27:31;14.32;;;9.32;;
22922;SDS011;11627;51.322;22.816;2022-10-28T11:29:59;15.52;;;10.05;;
22922;SDS011;11627;51.322;22.816;2022-10-28T11:32:28;15.98;;;9.75;;
22922;SDS011;11627;51.322;22.816;2022-10-28T11:35:07;16.58;;;9.40;;
22922;SDS011;11627;51.322;22.816;2022-10-28T11:49:10;17.25;;;9.23;;
22922;SDS011;11627;51.322;22.816;2022-10-28T11:56:58;11.85;;;7.57;;
22922;SDS011;11627;51.322;22.816;2022-10-28T12:04:57;11.07;;;7.20;;
22922;SDS011;11627;51.322;22.816;2022-10-28T12:07:31;12.13;;;6.85;;
22922;SDS011;11627;51.322;22.816;2022-10-28T12:10:09;10.90;;;6.78;;
22922;SDS011;11627;51.322;22.816;2022-10-28T12:18:10;16.17;;;7.20;;
22922;SDS011;11627;51.322;22.816;2022-10-28T12:24:16;12.52;;;7.30;;
22922;SDS011;11627;51.322;22.816;2022-10-28T12:26:55;14.13;;;7.85;;
22922;SDS011;11627;51.322;22.816;2022-10-28T12:29:26;16.25;;;9.02;;
22922;SDS011;11627;51.322;22.816;2022-10-28T12:32:08;20.48;;;9.90;;
22922;SDS011;11627;51.322;22.816;2022-10-28T12:34:44;18.33;;;10.45;;
22922;SDS011;11627;51.322;22.816;2022-10-28T12:37:20;17.45;;;9.75;;
22922;SDS011;11627;51.322;22.816;2022-10-28T12:39:51;20.30;;;12.32;;
22922;SDS011;11627;51.322;22.816;2022-10-28T12:42:32;26.58;;;10.95;;
22922;SDS011;11627;51.322;22.816;2022-10-28T12:45:03;24.95;;;14.35;;
22922;SDS011;11627;51.322;22.816;2022-10-28T12:47:36;28.33;;;14.25;;
22922;SDS011;11627;51.322;22.816;2022-10-28T12:55:36;11.45;;;7.97;;
22922;SDS011;11627;51.322;22.816;2022-10-28T13:01:00;13.88;;;8.68;;
22922;SDS011;11627;51.322;22.816;2022-10-28T13:03:31;12.32;;;7.40;;
22922;SDS011;11627;51.322;22.816;2022-10-28T13:06:20;23.83;;;9.55;;
22922;SDS011;11627;51.322;22.816;2022-10-28T13:09:10;14.98;;;8.52;;
22922;SDS011;11627;51.322;22.816;2022-10-28T13:12:50;12.88;;;8.20;;
22922;SDS011;11627;51.322;22.816;2022-10-28T13:23:23;16.42;;;9.15;;
22922;SDS011;11627;51.322;22.816;2022-10-28T13:26:39;19.02;;;9.40;;
22922;SDS011;11627;51.322;22.816;2022-10-28T13:29:01;17.05;;;9.65;;
22922;SDS011;11627;51.322;22.816;2022-10-28T13:31:38;16.38;;;8.68;;
22922;SDS011;11627;51.322;22.816;2022-10-28T13:34:06;16.48;;;9.43;;
22922;SDS011;11627;51.322;22.816;2022-10-28T13:36:34;18.73;;;9.20;;
22922;SDS011;11627;51.322;22.816;2022-10-28T13:39:06;18.80;;;9.23;;
22922;SDS011;11627;51.322;22.816;2022-10-28T13:41:47;14.38;;;8.88;;
22922;SDS011;11627;51.322;22.816;2022-10-28T13:44:20;18.88;;;8.70;;
22922;SDS011;11627;51.322;22.816;2022-10-28T13:47:04;14.32;;;8.98;;
22922;SDS011;11627;51.322;22.816;2022-10-28T13:52:39;13.40;;;8.40;;
22922;SDS011;11627;51.322;22.816;2022-10-28T13:57:46;14.43;;;9.23;;
22922;SDS011;11627;51.322;22.816;2022-10-28T14:02:47;19.63;;;10.20;;
22922;SDS011;11627;51.322;22.816;2022-10-28T14:05:14;15.95;;;9.48;;
22922;SDS011;11627;51.322;22.816;2022-10-28T14:10:28;18.92;;;9.18;;
22922;SDS011;11627;51.322;22.816;2022-10-28T14:15:25;16.42;;;9.32;;
22922;SDS011;11627;51.322;22.816;2022-10-28T14:17:57;18.73;;;10.25;;
22922;SDS011;11627;51.322;22.816;2022-10-28T14:31:31;18.88;;;10.02;;
22922;SDS011;11627;51.322;22.816;2022-10-28T14:40:39;20.65;;;10.07;;
22922;SDS011;11627;51.322;22.816;2022-10-28T14:45:39;14.68;;;9.32;;
22922;SDS011;11627;51.322;22.816;2022-10-28T14:51:00;15.20;;;9.27;;
22922;SDS011;11627;51.322;22.816;2022-10-28T14:53:31;15.35;;;10.00;;
22922;SDS011;11627;51.322;22.816;2022-10-28T14:56:00;15.48;;;8.85;;
22922;SDS011;11627;51.322;22.816;2022-10-28T14:58:30;16.20;;;9.13;;
22922;SDS011;11627;51.322;22.816;2022-10-28T15:03:51;17.73;;;10.38;;
22922;SDS011;11627;51.322;22.816;2022-10-28T15:06:23;17.00;;;11.02;;
22922;SDS011;11627;51.322;22.816;2022-10-28T15:09:09;39.42;;;18.92;;
22922;SDS011;11627;51.322;22.816;2022-10-28T15:11:43;38.72;;;20.52;;
22922;SDS011;11627;51.322;22.816;2022-10-28T15:14:32;29.08;;;16.30;;
22922;SDS011;11627;51.322;22.816;2022-10-28T15:17:03;24.23;;;14.55;;
22922;SDS011;11627;51.322;22.816;2022-10-28T15:20:39;29.38;;;17.33;;
22922;SDS011;11627;51.322;22.816;2022-10-28T15:23:12;27.67;;;16.33;;
22922;SDS011;11627;51.322;22.816;2022-10-28T15:25:41;26.13;;;14.63;;
22922;SDS011;11627;51.322;22.816;2022-10-28T15:28:09;23.05;;;14.55;;
22922;SDS011;11627;51.322;22.816;2022-10-28T15:30:39;35.08;;;21.40;;
22922;SDS011;11627;51.322;22.816;2022-10-28T15:33:19;43.28;;;23.50;;
22922;SDS011;11627;51.322;22.816;2022-10-28T15:44:05;44.75;;;23.92;;
22922;SDS011;11627;51.322;22.816;2022-10-28T15:46:48;37.58;;;22.45;;
22922;SDS011;11627;51.322;22.816;2022-10-28T15:49:37;36.85;;;21.92;;
22922;SDS011;11627;51.322;22.816;2022-10-28T15:52:19;33.50;;;20.70;;
22922;SDS011;11627;51.322;22.816;2022-10-28T15:54:57;27.20;;;15.10;;
22922;SDS011;11627;51.322;22.816;2022-10-28T15:57:29;30.10;;;17.48;;
22922;SDS011;11627;51.322;22.816;2022-10-28T16:03:05;46.03;;;21.77;;
22922;SDS011;11627;51.322;22.816;2022-10-28T16:05:49;47.42;;;21.52;;
22922;SDS011;11627;51.322;22.816;2022-10-28T16:08:21;42.90;;;23.02;;
22922;SDS011;11627;51.322;22.816;2022-10-28T16:11:04;31.33;;;18.45;;
22922;SDS011;11627;51.322;22.816;2022-10-28T16:13:47;32.28;;;17.38;;
22922;SDS011;11627;51.322;22.816;2022-10-28T16:16:21;36.72;;;20.75;;
22922;SDS011;11627;51.322;22.816;2022-10-28T16:18:52;45.65;;;28.50;;
22922;SDS011;11627;51.322;22.816;2022-10-28T16:21:32;43.30;;;28.42;;
22922;SDS011;11627;51.322;22.816;2022-10-28T16:24:00;46.08;;;28.25;;
22922;SDS011;11627;51.322;22.816;2022-10-28T16:26:27;45.70;;;25.48;;
22922;SDS011;11627;51.322;22.816;2022-10-28T16:28:54;45.53;;;27.45;;
22922;SDS011;11627;51.322;22.816;2022-10-28T16:31:22;44.08;;;25.65;;
22922;SDS011;11627;51.322;22.816;2022-10-28T16:33:51;41.97;;;24.25;;
22922;SDS011;11627;51.322;22.816;2022-10-28T16:36:18;44.55;;;24.73;;
22922;SDS011;11627;51.322;22.816;2022-10-28T16:38:43;45.67;;;25.10;;
22922;SDS011;11627;51.322;22.816;2022-10-28T16:41:10;42.75;;;24.63;;
22922;SDS011;11627;51.322;22.816;2022-10-28T16:43:40;35.20;;;21.83;;
22922;SDS011;11627;51.322;22.816;2022-10-28T16:46:07;38.25;;;20.58;;
22922;SDS011;11627;51.322;22.816;2022-10-28T16:48:36;32.72;;;21.05;;
22922;SDS011;11627;51.322;22.816;2022-10-28T16:51:03;41.50;;;22.10;;
22922;SDS011;11627;51.322;22.816;2022-10-28T16:53:34;39.47;;;22.00;;
22922;SDS011;11627;51.322;22.816;2022-10-28T16:56:00;32.75;;;20.02;;
22922;SDS011;11627;51.322;22.816;2022-10-28T16:58:30;36.60;;;19.58;;
22922;SDS011;11627;51.322;22.816;2022-10-28T17:00:58;34.80;;;18.52;;
22922;SDS011;11627;51.322;22.816;2022-10-28T17:03:24;27.63;;;16.00;;
22922;SDS011;11627;51.322;22.816;2022-10-28T17:05:49;31.77;;;16.17;;
22922;SDS011;11627;51.322;22.816;2022-10-28T17:08:16;34.22;;;18.60;;
22922;SDS011;11627;51.322;22.816;2022-10-28T17:10:44;33.80;;;18.13;;
22922;SDS011;11627;51.322;22.816;2022-10-28T17:13:12;33.50;;;18.50;;
22922;SDS011;11627;51.322;22.816;2022-10-28T17:15:40;28.60;;;15.70;;
22922;SDS011;11627;51.322;22.816;2022-10-28T17:18:08;24.27;;;13.93;;
22922;SDS011;11627;51.322;22.816;2022-10-28T17:20:34;26.38;;;14.57;;
22922;SDS011;11627;51.322;22.816;2022-10-28T17:23:00;24.08;;;13.75;;
22922;SDS011;11627;51.322;22.816;2022-10-28T17:25:26;22.98;;;13.18;;
22922;SDS011;11627;51.322;22.816;2022-10-28T17:27:52;23.58;;;13.63;;
22922;SDS011;11627;51.322;22.816;2022-10-28T17:30:18;24.50;;;14.10;;
22922;SDS011;11627;51.322;22.816;2022-10-28T17:32:44;27.98;;;14.20;;